Corner Brook, Canada
Current Conditions -  °F | °C
As of 1:00 AM on Wednesday 26 Nov 2014 (Local Time) from CYDF Reporting Station
Scattered Clouds Scattered Clouds  
Wind Chill: 36°   Ceiling: Unl
Heat Index: 41°   Visibility: 15mi
Dew Point: 34°   Wind: 8mph
Humidity: 76%   Direction: 220°SW
Pressure: 29.63"   Gusts: NA
Location:  48.95°N, 57.95°W
Report Text: CYDF 260400Z 22007KT 15SM SCT070 05/01 A2963 RMK AC4 SLP034
Loading
Personal Weather Stations






























Interactive Weather Map New forecast layout! Learn more

10-Day Weather Forecast

Advertisements
Track Severe Weather on mobile